Time;durP1;ratioP1;P1;durP2;ratioP2;P2;SDS_P1;SDS_P2;PMS_P1;PMS_P2;Temp;Humidity;BMP_temperature;BMP_pressure;BME280_temperature;BME280_humidity;BME280_pressure;Samples;Min_cycle;Max_cycle;Signal;HPM_P1;HPM_P2
2023/06/15 00:00:13;;;;;;;;;;;;;;;21.24;65.61;99449.09;3170226;28;19928;-77
2023/06/15 00:01:45;;;;;;;;;;;;;;;21.24;65.68;99454.38;3170050;28;20399;-78
2023/06/15 00:03:17;;;;;;;;;;;;;;;21.23;65.49;99453.50;3170059;28;19963;-78
2023/06/15 00:04:47;;;;;;;;;;;;;;;21.23;65.70;99460.63;3170033;28;19951;-78
2023/06/15 00:06:19;;;;;;;;;;;;;;;21.21;65.44;99460.78;3170189;28;19928;-78
2023/06/15 00:07:51;;;;;;;;;;;;;;;21.21;65.62;99454.63;3170363;28;19957;-78
2023/06/15 00:09:22;;;;;;;;;;;;;;;21.20;65.57;99464.41;3169432;28;19946;-78
2023/06/15 00:10:53;;;;;;;;;;;;;;;21.21;65.59;99459.94;3172123;28;19927;-78
2023/06/15 00:12:25;;;;;;;;;;;;;;;21.20;65.72;99460.94;3172106;28;19928;-76
2023/06/15 00:13:57;;;;;;;;;;;;;;;21.19;65.54;99457.44;3171862;28;19928;-76
2023/06/15 00:15:27;;;;;;;;;;;;;;;21.20;65.58;99463.56;3172649;28;20011;-77
2023/06/15 00:17:01;;;;;;;;;;;;;;;21.19;65.57;99456.63;3172021;28;19928;-78
2023/06/15 00:18:37;;;;;;;;;;;;;;;21.16;65.64;99454.25;3172112;28;20400;-77
2023/06/15 00:20:08;;;;;;;;;;;;;;;21.12;65.97;99457.22;3171838;28;19928;-78
2023/06/15 00:21:41;;;;;;;;;;;;;;;21.07;65.85;99459.44;3172186;28;20345;-77
2023/06/15 00:23:12;;;;;;;;;;;;;;;21.02;66.29;99456.38;3172122;28;19931;-78
2023/06/15 00:24:44;;;;;;;;;;;;;;;20.98;66.15;99455.03;3163183;28;20320;-77
2023/06/15 00:26:14;;;;;;;;;;;;;;;20.96;66.16;99448.19;3172017;28;20328;-77
2023/06/15 00:27:46;;;;;;;;;;;;;;;20.95;66.31;99457.13;3168374;28;19924;-77
2023/06/15 00:29:16;;;;;;;;;;;;;;;20.92;66.29;99450.31;3170420;28;19924;-77
2023/06/15 00:30:48;;;;;;;;;;;;;;;20.91;66.40;99459.19;3171653;28;19927;-77
2023/06/15 00:32:20;;;;;;;;;;;;;;;20.90;66.41;99452.25;3172182;28;19935;-77
2023/06/15 00:33:52;;;;;;;;;;;;;;;20.89;66.37;99455.88;3172075;28;19988;-77
2023/06/15 00:35:23;;;;;;;;;;;;;;;20.86;66.57;99453.53;3171666;28;20396;-77
2023/06/15 00:36:55;;;;;;;;;;;;;;;20.84;66.51;99458.94;3171671;28;19950;-75
2023/06/15 00:38:26;;;;;;;;;;;;;;;20.82;66.94;99460.06;3171655;28;20309;-78
2023/06/15 00:39:57;;;;;;;;;;;;;;;20.79;66.88;99457.72;3168662;28;19981;-78
2023/06/15 00:41:28;;;;;;;;;;;;;;;20.74;66.81;99452.03;3171689;28;20557;-78
2023/06/15 00:43:00;;;;;;;;;;;;;;;20.70;66.93;99454.09;3172150;28;19923;-78
2023/06/15 00:44:32;;;;;;;;;;;;;;;20.67;67.22;99452.59;3171979;28;19930;-78
2023/06/15 00:46:02;;;;;;;;;;;;;;;20.65;67.04;99459.00;3171694;28;19931;-76
2023/06/15 00:47:38;;;;;;;;;;;;;;;20.64;67.18;99463.44;3169961;28;19943;-77
2023/06/15 00:49:10;;;;;;;;;;;;;;;20.64;67.25;99459.97;3164615;28;19928;-76
2023/06/15 00:50:43;;;;;;;;;;;;;;;20.64;67.04;99462.63;3171838;28;19924;-78
2023/06/15 00:52:14;;;;;;;;;;;;;;;20.61;67.13;99460.25;3171408;28;19939;-77
2023/06/15 00:53:46;;;;;;;;;;;;;;;20.60;67.29;99456.78;3171395;28;19924;-79
2023/06/15 00:55:17;;;;;;;;;;;;;;;20.57;67.46;99459.72;3171578;28;19923;-78
2023/06/15 00:56:49;;;;;;;;;;;;;;;20.54;67.62;99454.69;3171207;28;19923;-78
2023/06/15 00:58:21;;;;;;;;;;;;;;;20.51;67.59;99446.19;3171470;28;20303;-78
2023/06/15 00:59:51;;;;;;;;;;;;;;;20.46;67.65;99450.06;3171628;28;19924;-78
2023/06/15 01:01:23;;;;;;;;;;;;;;;20.44;67.79;99445.91;3171762;28;19925;-78
2023/06/15 01:02:57;;;;;;;;;;;;;;;20.42;67.85;99447.88;3171102;28;20261;-78
2023/06/15 01:04:29;;;;;;;;;;;;;;;20.38;67.88;99457.03;3170930;28;19967;-78
2023/06/15 01:06:01;;;;;;;;;;;;;;;20.35;68.30;99447.59;3168974;28;19984;-78
2023/06/15 01:07:35;;;;;;;;;;;;;;;20.32;68.32;99447.88;3171489;28;19923;-78
2023/06/15 01:09:07;;;;;;;;;;;;;;;20.32;68.10;99457.59;3165069;28;19973;-77
2023/06/15 01:10:38;;;;;;;;;;;;;;;20.31;68.23;99459.41;3168243;28;20463;-77
2023/06/15 01:12:11;;;;;;;;;;;;;;;20.30;68.25;99460.41;3169941;28;19984;-77
2023/06/15 01:13:43;;;;;;;;;;;;;;;20.29;68.41;99457.88;3168859;28;20018;-78
2023/06/15 01:15:15;;;;;;;;;;;;;;;20.26;68.66;99458.16;3171105;28;19928;-77
2023/06/15 01:16:52;;;;;;;;;;;;;;;20.20;68.64;99455.13;3171401;28;19927;-78
2023/06/15 01:18:25;;;;;;;;;;;;;;;20.16;68.87;99459.00;3170991;28;19924;-77
2023/06/15 01:20:04;;;;;;;;;;;;;;;20.14;68.77;99460.09;3170926;28;19924;-78
2023/06/15 01:21:37;;;;;;;;;;;;;;;20.11;69.10;99463.03;3171111;28;20020;-77
2023/06/15 01:23:22;;;;;;;;;;;;;;;20.10;69.14;99453.44;3171187;28;19924;-78
2023/06/15 01:25:02;;;;;;;;;;;;;;;20.08;69.05;99455.38;3158594;28;19978;-78
2023/06/15 01:26:38;;;;;;;;;;;;;;;20.05;69.13;99453.00;3164362;28;19931;-78
2023/06/15 01:28:11;;;;;;;;;;;;;;;20.04;69.04;99449.53;3171396;28;19928;-77
2023/06/15 01:29:42;;;;;;;;;;;;;;;20.02;69.32;99454.13;3171235;28;20300;-77
2023/06/15 01:31:14;;;;;;;;;;;;;;;19.99;69.33;99446.47;3171094;28;19928;-77
2023/06/15 01:32:44;;;;;;;;;;;;;;;19.97;69.47;99445.78;3170974;28;19935;-77
2023/06/15 01:34:16;;;;;;;;;;;;;;;19.96;69.42;99438.81;3171170;28;20816;-78
2023/06/15 01:35:46;;;;;;;;;;;;;;;19.95;69.39;99445.09;3171226;28;19924;-78
2023/06/15 01:37:18;;;;;;;;;;;;;;;19.91;69.70;99441.06;3170851;28;19930;-78
2023/06/15 01:38:51;;;;;;;;;;;;;;;19.88;69.64;99450.09;3167820;28;19928;-78
2023/06/15 01:40:22;;;;;;;;;;;;;;;19.86;69.88;99449.38;3158482;28;19924;-78
2023/06/15 01:41:55;;;;;;;;;;;;;;;19.84;69.80;99438.09;3170186;28;20061;-77
2023/06/15 01:43:32;;;;;;;;;;;;;;;19.83;69.70;99438.25;3171091;28;20423;-77
2023/06/15 01:45:03;;;;;;;;;;;;;;;19.81;69.80;99441.03;3171329;28;19928;-77
2023/06/15 01:46:35;;;;;;;;;;;;;;;19.80;69.90;99441.19;3170709;28;19927;-77
2023/06/15 01:48:06;;;;;;;;;;;;;;;19.77;69.78;99437.81;3170857;28;20044;-77
2023/06/15 01:49:38;;;;;;;;;;;;;;;19.74;70.04;99435.47;3171333;28;19945;-77
2023/06/15 01:51:10;;;;;;;;;;;;;;;19.71;70.23;99438.38;3162479;28;19932;-78
2023/06/15 01:52:41;;;;;;;;;;;;;;;19.69;70.31;99435.03;3167931;28;19981;-78
2023/06/15 01:54:13;;;;;;;;;;;;;;;19.68;70.35;99440.47;3170455;28;19927;-78
2023/06/15 01:55:45;;;;;;;;;;;;;;;19.68;70.43;99437.81;3170065;28;20013;-78
2023/06/15 01:57:21;;;;;;;;;;;;;;;19.65;70.42;99432.81;3170715;28;20308;-78
2023/06/15 01:58:52;;;;;;;;;;;;;;;19.62;70.56;99433.88;3171044;28;19924;-78
2023/06/15 02:00:24;;;;;;;;;;;;;;;19.61;70.83;99436.63;3170655;28;20250;-78
2023/06/15 02:01:55;;;;;;;;;;;;;;;19.58;70.64;99432.50;3170184;28;20372;-78
2023/06/15 02:03:26;;;;;;;;;;;;;;;19.58;70.54;99437.78;3171066;28;19928;-78
2023/06/15 02:04:58;;;;;;;;;;;;;;;19.59;70.59;99441.25;3170794;28;20351;-78
2023/06/15 02:06:29;;;;;;;;;;;;;;;19.56;70.89;99442.34;3171138;28;19927;-78
2023/06/15 02:08:01;;;;;;;;;;;;;;;19.55;70.98;99443.28;3172562;28;20022;-76
2023/06/15 02:09:32;;;;;;;;;;;;;;;19.53;70.94;99443.44;3162389;28;19924;-78
2023/06/15 02:11:03;;;;;;;;;;;;;;;19.50;70.98;99438.44;3172264;28;20344;-77
2023/06/15 02:12:36;;;;;;;;;;;;;;;19.48;71.18;99444.81;3172197;28;20018;-78
2023/06/15 02:14:06;;;;;;;;;;;;;;;19.45;71.10;99434.53;3171902;28;19932;-78
2023/06/15 02:15:38;;;;;;;;;;;;;;;19.45;71.23;99439.81;3171713;28;20069;-77
2023/06/15 02:17:11;;;;;;;;;;;;;;;19.42;71.22;99438.28;3171885;28;20011;-77
2023/06/15 02:18:45;;;;;;;;;;;;;;;19.41;71.21;99441.06;3165116;28;19924;-77
2023/06/15 02:20:16;;;;;;;;;;;;;;;19.39;71.34;99440.34;3165709;28;20397;-77
2023/06/15 02:21:49;;;;;;;;;;;;;;;19.39;71.16;99435.06;3170800;28;20401;-77
2023/06/15 02:23:20;;;;;;;;;;;;;;;19.37;71.55;99442.28;3170281;28;19975;-76
2023/06/15 02:24:52;;;;;;;;;;;;;;;19.34;71.56;99440.75;3163768;28;20030;-77
2023/06/15 02:26:23;;;;;;;;;;;;;;;19.32;71.44;99440.06;3170523;28;19932;-77
2023/06/15 02:27:56;;;;;;;;;;;;;;;19.31;71.39;99443.66;3170475;28;20261;-77
2023/06/15 02:29:28;;;;;;;;;;;;;;;19.29;71.66;99442.97;3170842;28;19935;-77
2023/06/15 02:30:59;;;;;;;;;;;;;;;19.29;71.36;99437.69;3170610;28;19931;-76
2023/06/15 02:32:34;;;;;;;;;;;;;;;19.28;71.44;99441.28;3169880;28;20389;-77
2023/06/15 02:34:06;;;;;;;;;;;;;;;19.26;71.71;99449.34;3170137;28;19924;-76
2023/06/15 02:35:37;;;;;;;;;;;;;;;19.24;71.59;99448.63;3170251;28;20541;-77
2023/06/15 02:37:08;;;;;;;;;;;;;;;19.24;71.36;99445.16;3170275;28;19923;-76
2023/06/15 02:38:40;;;;;;;;;;;;;;;19.21;71.64;99446.25;3168196;28;19928;-77
2023/06/15 02:40:11;;;;;;;;;;;;;;;19.18;71.70;99445.69;3169262;28;20405;-76
2023/06/15 02:41:43;;;;;;;;;;;;;;;19.17;71.70;99446.69;3170730;28;19923;-77
2023/06/15 02:43:16;;;;;;;;;;;;;;;19.14;71.64;99442.50;3170432;28;19935;-77
2023/06/15 02:44:47;;;;;;;;;;;;;;;19.13;71.85;99445.25;3170415;28;19946;-76
2023/06/15 02:46:18;;;;;;;;;;;;;;;19.12;71.82;99446.22;3170357;28;19925;-77
2023/06/15 02:47:49;;;;;;;;;;;;;;;19.07;71.79;99444.81;3170540;28;20317;-76
2023/06/15 02:49:20;;;;;;;;;;;;;;;19.06;71.79;99448.41;3170330;28;19924;-77
2023/06/15 02:50:51;;;;;;;;;;;;;;;19.06;71.71;99447.59;3168274;28;20297;-77
2023/06/15 02:52:22;;;;;;;;;;;;;;;19.05;71.98;99445.94;3165420;28;19988;-77
2023/06/15 02:53:54;;;;;;;;;;;;;;;19.04;71.81;99454.78;3170156;28;20242;-76
2023/06/15 02:55:25;;;;;;;;;;;;;;;19.03;71.74;99453.97;3170551;28;19924;-77
2023/06/15 02:56:56;;;;;;;;;;;;;;;19.03;71.92;99450.50;3170076;28;19931;-78
2023/06/15 02:58:32;;;;;;;;;;;;;;;19.01;71.82;99447.97;3159534;28;19936;-77
2023/06/15 03:00:04;;;;;;;;;;;;;;;19.01;71.81;99447.97;3170473;28;19966;-77
2023/06/15 03:01:38;;;;;;;;;;;;;;;19.01;71.73;99450.59;3170162;28;19945;-78
2023/06/15 03:03:09;;;;;;;;;;;;;;;19.01;71.90;99452.41;3170528;28;20015;-77
2023/06/15 03:04:46;;;;;;;;;;;;;;;19.00;71.93;99456.88;3168540;28;19935;-77
2023/06/15 03:06:17;;;;;;;;;;;;;;;18.99;71.75;99454.34;3161837;28;20331;-78
2023/06/15 03:07:48;;;;;;;;;;;;;;;18.92;72.02;99446.13;3170105;28;19923;-78
2023/06/15 03:09:21;;;;;;;;;;;;;;;18.98;72.04;99457.97;3167120;28;19935;-78
2023/06/15 03:10:51;;;;;;;;;;;;;;;18.96;71.98;99451.97;3170408;28;19999;-78
2023/06/15 03:12:23;;;;;;;;;;;;;;;18.95;72.18;99453.78;3170159;28;19924;-78
2023/06/15 03:13:55;;;;;;;;;;;;;;;18.93;72.20;99457.50;3170185;28;20393;-79
2023/06/15 03:15:26;;;;;;;;;;;;;;;18.92;72.35;99453.22;3170329;28;19974;-77
2023/06/15 03:16:57;;;;;;;;;;;;;;;18.90;72.31;99453.34;3170637;28;20558;-76
2023/06/15 03:18:29;;;;;;;;;;;;;;;18.92;72.17;99459.31;3164982;28;19924;-76
2023/06/15 03:20:00;;;;;;;;;;;;;;;18.94;72.14;99459.19;3163339;28;19959;-76
2023/06/15 03:21:31;;;;;;;;;;;;;;;18.96;72.21;99465.16;3165119;28;19961;-76
2023/06/15 03:23:03;;;;;;;;;;;;;;;18.96;72.29;99458.09;3165001;28;19928;-75
2023/06/15 03:24:33;;;;;;;;;;;;;;;18.98;72.30;99463.25;3158928;28;19934;-77
2023/06/15 03:26:06;;;;;;;;;;;;;;;18.97;72.38;99464.22;3165171;28;20015;-77
2023/06/15 03:27:40;;;;;;;;;;;;;;;18.97;72.23;99456.31;3165059;28;19967;-76
2023/06/15 03:29:13;;;;;;;;;;;;;;;18.97;72.39;99456.31;3165086;28;20015;-78
2023/06/15 03:30:46;;;;;;;;;;;;;;;18.96;72.59;99462.53;3164792;28;20328;-78
2023/06/15 03:32:17;;;;;;;;;;;;;;;18.98;72.51;99457.97;3164722;28;19977;-78
2023/06/15 03:33:49;;;;;;;;;;;;;;;18.97;72.68;99458.94;3165035;28;20010;-78
2023/06/15 03:35:21;;;;;;;;;;;;;;;18.98;72.44;99461.44;3155662;28;19994;-77
2023/06/15 03:36:53;;;;;;;;;;;;;;;18.97;72.79;99457.13;3164571;28;20474;-77
2023/06/15 03:38:23;;;;;;;;;;;;;;;18.96;72.63;99458.09;3164596;28;19928;-77
2023/06/15 03:39:55;;;;;;;;;;;;;;;18.94;72.89;99453.94;3161669;28;19934;-78
2023/06/15 03:41:26;;;;;;;;;;;;;;;18.92;72.98;99450.56;3165141;28;20006;-76
2023/06/15 03:42:58;;;;;;;;;;;;;;;18.88;73.02;99457.09;3165597;28;19936;-77
2023/06/15 03:44:30;;;;;;;;;;;;;;;18.85;73.04;99450.25;3167111;28;19928;-77
2023/06/15 03:46:01;;;;;;;;;;;;;;;18.83;73.41;99458.28;3167049;28;19927;-77
2023/06/15 03:47:33;;;;;;;;;;;;;;;18.83;73.09;99447.75;3167693;28;19988;-77
2023/06/15 03:49:05;;;;;;;;;;;;;;;18.85;73.09;99451.09;3170136;28;19928;-77
2023/06/15 03:50:37;;;;;;;;;;;;;;;18.86;73.14;99446.66;3169642;28;19928;-77
2023/06/15 03:52:09;;;;;;;;;;;;;;;18.85;73.33;99451.09;3169255;28;19932;-77
2023/06/15 03:53:42;;;;;;;;;;;;;;;18.84;73.29;99449.44;3164003;28;20396;-77
2023/06/15 03:55:14;;;;;;;;;;;;;;;18.84;73.26;99451.22;3160888;28;19957;-76
2023/06/15 03:56:45;;;;;;;;;;;;;;;18.85;73.20;99447.63;3166514;28;19928;-77
2023/06/15 03:58:17;;;;;;;;;;;;;;;18.85;73.18;99455.53;3167067;28;19928;-77
2023/06/15 03:59:51;;;;;;;;;;;;;;;18.86;73.32;99458.03;3167318;28;20682;-76
2023/06/15 04:01:24;;;;;;;;;;;;;;;18.85;73.32;99453.72;3164145;28;19979;-78
2023/06/15 04:02:56;;;;;;;;;;;;;;;18.84;73.26;99454.72;3162977;28;20360;-77
2023/06/15 04:04:28;;;;;;;;;;;;;;;18.85;73.28;99456.38;3166924;28;19974;-77
2023/06/15 04:06:01;;;;;;;;;;;;;;;18.84;73.55;99451.22;3166863;28;19932;-74
2023/06/15 04:07:32;;;;;;;;;;;;;;;18.85;73.39;99458.19;3167195;28;19928;-77
2023/06/15 04:09:05;;;;;;;;;;;;;;;18.88;73.17;99455.28;3161477;28;19928;-75
2023/06/15 04:10:37;;;;;;;;;;;;;;;18.92;73.01;99459.31;3156526;28;19928;-73
2023/06/15 04:12:09;;;;;;;;;;;;;;;18.94;73.17;99461.84;3165789;28;20403;-74
2023/06/15 04:13:41;;;;;;;;;;;;;;;18.95;73.16;99464.31;3167224;28;19945;-73
2023/06/15 04:15:14;;;;;;;;;;;;;;;18.95;nan;99468.78;3166286;28;19927;-74
2023/06/15 04:16:46;;;;;;;;;;;;;;;18.95;73.20;99471.41;3166525;28;19931;-75
2023/06/15 04:18:16;;;;;;;;;;;;;;;18.94;73.27;99470.59;3162990;28;19928;-75
2023/06/15 04:19:48;;;;;;;;;;;;;;;18.90;73.30;99460.41;3166625;28;19931;-74
2023/06/15 04:21:20;;;;;;;;;;;;;;;18.99;73.21;99468.41;3166822;28;19932;-74
2023/06/15 04:22:50;;;;;;;;;;;;;;;19.01;73.18;99474.34;3167022;28;19927;-73
2023/06/15 04:24:22;;;;;;;;;;;;;;;19.03;73.20;99472.44;3158243;28;20116;-75
2023/06/15 04:25:53;;;;;;;;;;;;;;;19.05;72.91;99474.97;3163288;28;19939;-75
2023/06/15 04:27:29;;;;;;;;;;;;;;;19.08;73.14;99479.97;3166821;28;20001;-73
2023/06/15 04:29:01;;;;;;;;;;;;;;;19.14;72.90;99483.88;3166680;28;19934;-73
2023/06/15 04:30:36;;;;;;;;;;;;;;;19.18;72.91;99482.66;3166693;28;19928;-73
2023/06/15 04:32:08;;;;;;;;;;;;;;;19.19;72.88;99471.94;3167147;28;20008;-73
2023/06/15 04:33:42;;;;;;;;;;;;;;;19.24;73.10;99479.47;3166550;28;19927;-72
2023/06/15 04:35:17;;;;;;;;;;;;;;;19.27;72.86;99481.84;3166677;28;19927;-73
2023/06/15 04:36:49;;;;;;;;;;;;;;;19.32;72.88;99482.31;3166215;28;19932;-72
2023/06/15 04:38:20;;;;;;;;;;;;;;;19.32;72.69;99474.38;3166527;28;20194;-68
2023/06/15 04:39:52;;;;;;;;;;;;;;;19.44;72.42;99490.97;3162614;28;19939;-72
2023/06/15 04:41:23;;;;;;;;;;;;;;;19.50;72.16;99485.97;3166784;28;19931;-67
2023/06/15 04:42:57;;;;;;;;;;;;;;;19.54;72.13;99494.47;3166850;28;19981;-68
2023/06/15 04:44:28;;;;;;;;;;;;;;;19.58;72.17;99490.59;3166573;28;19927;-65
2023/06/15 04:46:01;;;;;;;;;;;;;;;19.61;72.15;99487.69;3166455;28;20001;-66
2023/06/15 04:47:33;;;;;;;;;;;;;;;19.66;71.88;99493.41;3166519;28;20455;-67
2023/06/15 04:49:05;;;;;;;;;;;;;;;19.71;71.88;99496.50;3166825;28;19927;-67
2023/06/15 04:50:37;;;;;;;;;;;;;;;19.76;71.64;99499.56;3160631;28;19951;-66
2023/06/15 04:52:09;;;;;;;;;;;;;;;19.78;71.50;99500.25;3166224;28;20388;-68
2023/06/15 04:53:42;;;;;;;;;;;;;;;19.80;71.25;99499.31;3164008;28;19971;-67
2023/06/15 04:55:14;;;;;;;;;;;;;;;19.77;71.29;99501.22;3157095;28;19938;-69
2023/06/15 04:56:45;;;;;;;;;;;;;;;19.83;71.39;99501.69;3162010;28;19934;-70
2023/06/15 04:58:17;;;;;;;;;;;;;;;19.88;71.17;99502.09;3165905;28;20386;-67
2023/06/15 04:59:49;;;;;;;;;;;;;;;19.91;70.87;99496.56;3166601;28;19932;-67
2023/06/15 05:01:22;;;;;;;;;;;;;;;20.03;70.90;99502.56;3166016;28;19950;-67
2023/06/15 05:02:54;;;;;;;;;;;;;;;20.04;70.78;99502.41;3166030;28;20030;-68
2023/06/15 05:04:25;;;;;;;;;;;;;;;20.05;70.56;99506.69;3166246;28;20022;-72
2023/06/15 05:05:56;;;;;;;;;;;;;;;20.08;70.36;99498.50;3166005;28;19928;-70
2023/06/15 05:07:28;;;;;;;;;;;;;;;20.12;70.30;99504.38;3161727;28;19928;-71
2023/06/15 05:09:00;;;;;;;;;;;;;;;20.13;70.26;99508.66;3160734;28;20695;-70
2023/06/15 05:10:30;;;;;;;;;;;;;;;20.13;70.22;99506.03;3162227;28;19964;-70
2023/06/15 05:12:02;;;;;;;;;;;;;;;20.13;70.29;99506.84;3166045;28;19927;-70
2023/06/15 05:13:34;;;;;;;;;;;;;;;20.13;69.98;99506.03;3166439;28;19956;-69
2023/06/15 05:15:06;;;;;;;;;;;;;;;20.16;70.37;99511.03;3166222;28;19928;-70
2023/06/15 05:16:40;;;;;;;;;;;;;;;20.19;70.13;99506.31;3165631;28;19964;-72
2023/06/15 05:18:11;;;;;;;;;;;;;;;20.22;69.88;99500.75;3165991;28;19954;-68
2023/06/15 05:19:43;;;;;;;;;;;;;;;20.22;69.73;99506.03;3166227;28;19927;-67
2023/06/15 05:21:14;;;;;;;;;;;;;;;20.28;69.87;99499.34;3165720;28;20018;-68
2023/06/15 05:22:46;;;;;;;;;;;;;;;20.37;69.69;99502.97;3165825;28;19928;-70
2023/06/15 05:24:18;;;;;;;;;;;;;;;20.46;69.60;99510.06;3163606;28;19928;-70
2023/06/15 05:25:55;;;;;;;;;;;;;;;20.54;69.21;99502.31;3166822;28;19927;-73
2023/06/15 05:27:28;;;;;;;;;;;;;;;20.63;69.28;99500.63;3166295;28;19938;-72
2023/06/15 05:29:00;;;;;;;;;;;;;;;20.71;69.00;99503.41;3165758;28;20381;-73
2023/06/15 05:30:31;;;;;;;;;;;;;;;20.80;68.92;99505.22;3166160;28;19928;-74
2023/06/15 05:32:05;;;;;;;;;;;;;;;20.88;68.80;99505.34;3166100;28;19943;-72
2023/06/15 05:33:36;;;;;;;;;;;;;;;20.97;68.38;99508.94;3165959;28;20349;-70
2023/06/15 05:35:09;;;;;;;;;;;;;;;21.02;68.37;99496.09;3166067;28;19932;-74
2023/06/15 05:36:40;;;;;;;;;;;;;;;21.07;68.09;99501.81;3165711;28;19928;-73
2023/06/15 05:38:12;;;;;;;;;;;;;;;21.17;67.99;99498.28;3165965;28;19931;-72
2023/06/15 05:39:44;;;;;;;;;;;;;;;21.26;67.66;99492.13;3162040;28;19928;-72
2023/06/15 05:41:16;;;;;;;;;;;;;;;21.34;67.68;99497.53;3165679;28;20828;-73
2023/06/15 05:42:46;;;;;;;;;;;;;;;21.43;67.15;99493.22;3165880;28;20008;-73
2023/06/15 05:44:18;;;;;;;;;;;;;;;21.52;67.04;99490.50;3165718;28;20427;-72
2023/06/15 05:45:49;;;;;;;;;;;;;;;21.62;66.96;99492.28;3163899;28;19996;-70
2023/06/15 05:47:25;;;;;;;;;;;;;;;21.72;66.63;99496.53;3156813;28;19980;-72
2023/06/15 05:48:57;;;;;;;;;;;;;;;21.80;66.51;99496.66;3156376;28;20023;-72
2023/06/15 05:50:29;;;;;;;;;;;;;;;21.89;66.38;99499.38;3157851;28;19932;-73
2023/06/15 05:52:01;;;;;;;;;;;;;;;21.95;66.23;99498.78;3165816;28;20001;-72
2023/06/15 05:53:33;;;;;;;;;;;;;;;22.00;65.77;99494.69;3164418;28;19949;-70
2023/06/15 05:55:05;;;;;;;;;;;;;;;22.07;65.62;99499.41;3153727;28;19977;-72
2023/06/15 05:56:36;;;;;;;;;;;;;;;22.14;65.92;99503.13;3165713;28;19928;-73
2023/06/15 05:58:08;;;;;;;;;;;;;;;22.19;65.68;99504.38;3165658;28;20278;-73
2023/06/15 05:59:40;;;;;;;;;;;;;;;22.25;65.13;99497.63;3165957;28;20042;-73
2023/06/15 06:01:11;;;;;;;;;;;;;;;22.31;65.22;99499.69;3164703;28;20241;-68
2023/06/15 06:02:44;;;;;;;;;;;;;;;22.37;64.99;99496.41;3164243;28;19928;-73
2023/06/15 06:04:16;;;;;;;;;;;;;;;22.45;64.78;99498.28;3165628;28;20420;-73
2023/06/15 06:05:48;;;;;;;;;;;;;;;22.49;64.89;99495.19;3160789;28;19938;-72
2023/06/15 06:07:19;;;;;;;;;;;;;;;22.54;64.58;99500.03;3160578;28;19928;-74
2023/06/15 06:08:51;;;;;;;;;;;;;;;22.58;64.67;99497.91;3161217;28;19928;-72
2023/06/15 06:10:23;;;;;;;;;;;;;;;22.59;64.66;99500.41;3157755;28;19935;-72
2023/06/15 06:11:54;;;;;;;;;;;;;;;22.61;64.19;99494.94;3157800;28;19928;-67
2023/06/15 06:13:26;;;;;;;;;;;;;;;22.63;64.26;99495.63;3161388;28;20750;-73
2023/06/15 06:14:58;;;;;;;;;;;;;;;22.67;64.14;99483.72;3165514;28;19931;-73
2023/06/15 06:16:29;;;;;;;;;;;;;;;22.73;64.01;99491.06;3164808;28;19989;-72
2023/06/15 06:18:04;;;;;;;;;;;;;;;22.76;64.09;99490.75;3165246;28;19989;-75
2023/06/15 06:19:36;;;;;;;;;;;;;;;22.77;64.21;99487.09;3165651;28;19944;-71
2023/06/15 06:21:07;;;;;;;;;;;;;;;22.80;64.15;99491.25;3165436;28;19946;-72
2023/06/15 06:22:39;;;;;;;;;;;;;;;22.84;64.09;99489.97;3165119;28;19932;-71
2023/06/15 06:24:11;;;;;;;;;;;;;;;22.89;63.72;99482.34;3158743;28;20380;-70
2023/06/15 06:25:43;;;;;;;;;;;;;;;22.93;63.42;99491.69;3164887;28;20348;-73
2023/06/15 06:27:15;;;;;;;;;;;;;;;22.96;63.14;99491.41;3165028;28;19989;-70
2023/06/15 06:28:48;;;;;;;;;;;;;;;22.98;63.02;99488.59;3165305;28;19954;-68
2023/06/15 06:30:20;;;;;;;;;;;;;;;23.00;62.89;99491.94;3163870;28;20470;-70
2023/06/15 06:31:52;;;;;;;;;;;;;;;23.02;63.13;99488.13;3165230;28;19929;-71
2023/06/15 06:33:25;;;;;;;;;;;;;;;23.06;63.17;99488.66;3165452;28;19932;-71
2023/06/15 06:35:00;;;;;;;;;;;;;;;23.11;62.77;99489.00;3165425;28;19927;-73
2023/06/15 06:36:32;;;;;;;;;;;;;;;23.18;62.94;99487.38;3159807;28;19928;-72
2023/06/15 06:38:08;;;;;;;;;;;;;;;23.24;62.71;99486.75;3165052;28;19927;-71
2023/06/15 06:39:40;;;;;;;;;;;;;;;23.35;62.50;99494.44;3161150;28;19931;-71
2023/06/15 06:41:12;;;;;;;;;;;;;;;23.48;62.65;99480.72;3165365;28;19935;-75
2023/06/15 06:42:46;;;;;;;;;;;;;;;23.62;62.41;99492.56;3156587;28;19939;-71
2023/06/15 06:44:19;;;;;;;;;;;;;;;23.74;62.03;99493.13;3160769;28;19963;-70
2023/06/15 06:45:50;;;;;;;;;;;;;;;23.88;61.53;99491.69;3164714;28;19927;-74
2023/06/15 06:47:22;;;;;;;;;;;;;;;23.97;60.93;99493.38;3165231;28;20396;-73
2023/06/15 06:48:56;;;;;;;;;;;;;;;24.09;60.75;99493.91;3161287;28;19986;-72
2023/06/15 06:50:27;;;;;;;;;;;;;;;24.16;60.43;99489.56;3160190;28;20014;-75
2023/06/15 06:51:59;;;;;;;;;;;;;;;24.24;60.59;99490.41;3165004;28;20423;-76
2023/06/15 06:53:31;;;;;;;;;;;;;;;24.35;60.36;99483.13;3164338;28;20286;-70
2023/06/15 06:55:04;;;;;;;;;;;;;;;24.39;60.15;99495.09;3155955;28;20404;-75
2023/06/15 06:56:36;;;;;;;;;;;;;;;24.43;60.22;99493.78;3164942;28;20392;-74
2023/06/15 06:58:07;;;;;;;;;;;;;;;24.48;60.11;99486.13;3164684;28;20055;-70
2023/06/15 06:59:39;;;;;;;;;;;;;;;24.54;59.98;99493.44;3163651;28;19934;-73
2023/06/15 07:01:11;;;;;;;;;;;;;;;24.59;59.46;99493.78;3164597;28;19927;-74
2023/06/15 07:02:42;;;;;;;;;;;;;;;24.63;59.69;99492.44;3164688;28;19931;-71
2023/06/15 07:04:16;;;;;;;;;;;;;;;24.70;59.46;99481.97;3160660;28;20009;-71
2023/06/15 07:05:48;;;;;;;;;;;;;;;24.75;59.55;99488.44;3165090;28;19931;-72
2023/06/15 07:07:19;;;;;;;;;;;;;;;24.81;59.21;99483.44;3164865;28;20410;-70
2023/06/15 07:08:51;;;;;;;;;;;;;;;24.87;59.53;99491.59;3160163;28;20161;-68
2023/06/15 07:10:23;;;;;;;;;;;;;;;24.93;59.31;99482.91;3162102;28;19947;-68
2023/06/15 07:11:55;;;;;;;;;;;;;;;24.98;58.98;99490.41;3163341;28;20005;-70
2023/06/15 07:13:26;;;;;;;;;;;;;;;24.94;59.18;99473.94;3164374;28;20054;-70
2023/06/15 07:14:58;;;;;;;;;;;;;;;25.04;58.86;99484.41;3162726;28;19932;-71
2023/06/15 07:16:30;;;;;;;;;;;;;;;25.06;59.13;99478.94;3156802;28;19996;-72
2023/06/15 07:18:01;;;;;;;;;;;;;;;25.06;58.72;99481.59;3165600;28;20530;-68
2023/06/15 07:19:35;;;;;;;;;;;;;;;25.04;58.58;99484.41;3167711;28;20008;-68
2023/06/15 07:21:06;;;;;;;;;;;;;;;25.02;58.80;99482.91;3167559;28;19992;-72
2023/06/15 07:22:38;;;;;;;;;;;;;;;25.01;58.50;99486.59;3166608;28;19974;-69
2023/06/15 07:24:10;;;;;;;;;;;;;;;25.03;58.78;99482.75;3167348;28;20445;-71
2023/06/15 07:25:42;;;;;;;;;;;;;;;25.05;58.70;99488.72;3167703;28;19932;-69
2023/06/15 07:27:14;;;;;;;;;;;;;;;25.08;58.87;99484.88;3167216;28;19935;-72
2023/06/15 07:28:45;;;;;;;;;;;;;;;25.08;58.28;99483.09;3167553;28;19988;-70
2023/06/15 07:30:17;;;;;;;;;;;;;;;25.08;58.17;99482.22;3167132;28;20447;-72
2023/06/15 07:31:49;;;;;;;;;;;;;;;25.02;58.03;99481.06;3166230;28;19938;-74
2023/06/15 07:33:21;;;;;;;;;;;;;;;24.92;58.38;99478.59;3168771;28;19924;-69
2023/06/15 07:34:54;;;;;;;;;;;;;;;24.90;58.59;99477.94;3172445;28;19976;-68
2023/06/15 07:36:26;;;;;;;;;;;;;;;24.93;58.21;99488.25;3162484;28;19938;-72
2023/06/15 07:37:57;;;;;;;;;;;;;;;24.99;58.14;99481.41;3165955;28;19927;-71
2023/06/15 07:39:28;;;;;;;;;;;;;;;25.07;58.43;99481.41;3166085;28;19931;-68
2023/06/15 07:41:00;;;;;;;;;;;;;;;25.16;58.07;99480.41;3172416;28;20413;-68
2023/06/15 07:42:32;;;;;;;;;;;;;;;25.17;58.05;99475.91;3168486;28;19963;-68
2023/06/15 07:44:11;;;;;;;;;;;;;;;25.21;57.86;99471.91;3170929;28;19964;-68
2023/06/15 07:45:45;;;;;;;;;;;;;;;25.29;57.38;99484.34;3163921;28;19981;-69
2023/06/15 07:47:16;;;;;;;;;;;;;;;25.36;57.23;99472.84;3165588;28;20006;-69
2023/06/15 07:48:48;;;;;;;;;;;;;;;25.43;57.59;99473.81;3172463;28;19946;-72
2023/06/15 07:50:26;;;;;;;;;;;;;;;25.56;57.39;99469.78;3172217;28;19931;-70
2023/06/15 07:52:00;;;;;;;;;;;;;;;25.58;56.85;99468.56;3172266;28;20416;-71
2023/06/15 07:53:35;;;;;;;;;;;;;;;25.56;56.19;99467.13;3162199;28;20320;-68
2023/06/15 07:55:07;;;;;;;;;;;;;;;25.55;56.54;99458.25;3163318;28;20321;-69
2023/06/15 07:56:45;;;;;;;;;;;;;;;25.62;56.69;99466.41;3172147;28;19930;-69
2023/06/15 07:58:17;;;;;;;;;;;;;;;25.68;56.48;99465.72;3168308;28;19932;-71
2023/06/15 07:59:49;;;;;;;;;;;;;;;25.74;56.26;99458.84;3172319;28;20250;-68